Sanjo, Japan
Current Conditions -  °F | °C
As of 9:00 PM on Wednesday 28 Jan 2015 (Local Time) from RJSN Reporting Station
Broken Clouds Broken Clouds  
Wind Chill: 24°   Ceiling: 7000
Heat Index: 34°   Visibility: 6mi
Dew Point: 21°   Wind: 14mph
Humidity: 60%   Direction: 270°W
Pressure: 30.27"   Gusts: NA
Location:  37.62°N, 138.96°E
Report Text: RJSN 281200Z 27012KT 9999 FEW015 SCT050 BKN070 01/M06 Q1025
Loading
Personal Weather Stations






























Interactive Weather Map New forecast layout! Learn more

10-Day Weather Forecast

Advertisements
Track Severe Weather on mobile